createdAt,value
2019-05-17T00:00:37.468Z,1.95
2019-05-17T00:03:06.854Z,3.55
2019-05-17T00:05:37.295Z,2.98
2019-05-17T00:08:07.381Z,3.62
2019-05-17T00:10:37.265Z,3.33
2019-05-17T00:13:07.012Z,5.00
2019-05-17T00:15:36.691Z,4.65
2019-05-17T00:18:06.710Z,3.80
2019-05-17T00:20:34.355Z,3.35
2019-05-17T00:23:02.285Z,5.72
2019-05-17T00:25:30.245Z,5.55
2019-05-17T00:27:58.085Z,4.10
2019-05-17T00:30:26.669Z,4.20
2019-05-17T00:32:56.805Z,4.97
2019-05-17T00:35:26.637Z,5.92
2019-05-17T00:37:54.261Z,5.70
2019-05-17T00:40:22.229Z,4.40
2019-05-17T00:42:50.164Z,4.62
2019-05-17T00:45:18.071Z,4.70
2019-05-17T00:47:46.775Z,3.60
2019-05-17T00:50:17.044Z,4.00
2019-05-17T00:52:47.474Z,5.33
2019-05-17T00:55:17.541Z,4.37
2019-05-17T00:57:47.474Z,6.03
2019-05-17T01:00:17.040Z,5.17
2019-05-17T01:02:46.811Z,4.37
2019-05-17T01:05:17.196Z,4.67
2019-05-17T01:07:47.034Z,5.00
2019-05-17T01:10:16.605Z,5.45
2019-05-17T01:12:44.724Z,4.00
2019-05-17T01:15:16.761Z,5.08
2019-05-17T01:17:44.588Z,4.00
2019-05-17T01:20:13.020Z,4.72
2019-05-17T01:22:41.352Z,4.72
2019-05-17T01:25:10.237Z,5.10
2019-05-17T01:27:38.510Z,5.50
2019-05-17T01:30:07.643Z,4.33
2019-05-17T01:32:37.410Z,4.33
2019-05-17T01:35:07.261Z,5.40
2019-05-17T01:37:37.130Z,5.20
2019-05-17T01:40:06.908Z,4.60
2019-05-17T01:42:37.148Z,5.65
2019-05-17T01:45:07.225Z,6.90
2019-05-17T01:47:36.834Z,4.83
2019-05-17T01:50:06.854Z,5.55
2019-05-17T01:52:36.937Z,5.37
2019-05-17T01:55:06.623Z,5.17
2019-05-17T01:57:36.771Z,5.90
2019-05-17T02:00:06.499Z,5.72
2019-05-17T02:02:37.660Z,5.62
2019-05-17T02:05:06.613Z,5.12
2019-05-17T02:07:37.314Z,5.17
2019-05-17T02:10:07.431Z,4.97
2019-05-17T02:12:37.220Z,5.22
2019-05-17T02:15:06.933Z,5.25
2019-05-17T02:17:37.174Z,5.60
2019-05-17T02:20:06.440Z,5.87
2019-05-17T02:22:36.617Z,6.05
2019-05-17T02:25:07.123Z,5.97
2019-05-17T02:27:41.063Z,5.70
2019-05-17T02:30:06.657Z,6.80
2019-05-17T02:32:35.067Z,5.60
2019-05-17T02:35:03.569Z,7.42
2019-05-17T02:37:33.439Z,7.00
2019-05-17T02:40:04.696Z,7.28
2019-05-17T02:42:33.403Z,6.15
2019-05-17T02:45:02.984Z,6.08
2019-05-17T02:47:33.687Z,6.87
2019-05-17T02:50:05.209Z,6.80
2019-05-17T02:52:32.852Z,6.53
2019-05-17T02:55:04.088Z,6.90
2019-05-17T02:57:34.747Z,7.05
2019-05-17T03:00:04.496Z,6.90
2019-05-17T03:02:34.068Z,6.72
2019-05-17T03:05:03.963Z,7.12
2019-05-17T03:07:32.581Z,6.60
2019-05-17T03:10:17.008Z,6.58
2019-05-17T03:12:33.000Z,8.33
2019-05-17T03:15:03.952Z,7.83
2019-05-17T03:17:33.907Z,7.90
2019-05-17T03:20:04.058Z,8.25
2019-05-17T03:22:33.150Z,8.15
2019-05-17T03:25:03.206Z,8.58
2019-05-17T03:27:33.520Z,8.40
2019-05-17T03:30:04.033Z,6.90
2019-05-17T03:32:36.373Z,8.45
2019-05-17T03:35:06.042Z,9.33
2019-05-17T03:37:37.224Z,8.55
2019-05-17T03:40:04.584Z,8.98
2019-05-17T03:42:33.144Z,8.68
2019-05-17T03:45:02.899Z,8.13
2019-05-17T03:47:33.288Z,8.20
2019-05-17T03:50:03.193Z,8.33
2019-05-17T03:52:33.085Z,7.95
2019-05-17T03:55:03.747Z,8.30
2019-05-17T03:57:32.309Z,9.73
2019-05-17T04:00:03.726Z,8.45
2019-05-17T04:02:32.690Z,8.88
2019-05-17T04:04:59.871Z,9.30
2019-05-17T04:07:28.158Z,9.38
2019-05-17T04:09:56.139Z,8.10
2019-05-17T04:12:23.994Z,8.25
2019-05-17T04:14:53.293Z,8.90
2019-05-17T04:17:22.701Z,8.80
2019-05-17T04:19:53.265Z,9.80
2019-05-17T04:22:23.625Z,9.75
2019-05-17T04:24:52.491Z,10.10
2019-05-17T04:27:22.925Z,9.30
2019-05-17T04:29:53.321Z,8.35
2019-05-17T04:32:23.228Z,8.35
2019-05-17T04:34:52.583Z,9.35
2019-05-17T04:37:22.912Z,10.25
2019-05-17T04:39:52.502Z,10.45
2019-05-17T04:42:22.741Z,9.18
2019-05-17T04:44:52.752Z,9.30
2019-05-17T04:47:22.964Z,11.20
2019-05-17T04:49:53.331Z,11.35
2019-05-17T04:52:22.552Z,12.30
2019-05-17T04:54:53.423Z,11.00
2019-05-17T04:57:22.921Z,11.30
2019-05-17T04:59:52.195Z,11.03
2019-05-17T05:02:19.380Z,10.60
2019-05-17T05:04:47.429Z,12.30
2019-05-17T05:07:15.279Z,11.90
2019-05-17T05:09:43.316Z,11.50
2019-05-17T05:12:12.516Z,12.80
2019-05-17T05:14:43.024Z,12.37
2019-05-17T05:17:12.806Z,11.55
2019-05-17T05:19:42.293Z,12.37
2019-05-17T05:22:12.944Z,12.47
2019-05-17T05:24:42.220Z,13.95
2019-05-17T05:27:11.640Z,14.35
2019-05-17T05:29:41.609Z,14.65
2019-05-17T05:32:11.653Z,14.40
2019-05-17T05:34:39.268Z,14.25
2019-05-17T05:37:07.234Z,13.48
2019-05-17T05:39:35.483Z,14.07
2019-05-17T05:42:07.970Z,14.03
2019-05-17T05:44:34.914Z,15.10
2019-05-17T05:47:02.947Z,15.85
2019-05-17T05:49:32.063Z,15.28
2019-05-17T05:52:01.973Z,14.65
2019-05-17T05:54:31.982Z,15.58
2019-05-17T05:57:02.269Z,14.00
2019-05-17T05:59:31.706Z,15.68
2019-05-17T06:02:01.755Z,15.68
2019-05-17T06:04:31.824Z,13.80
2019-05-17T06:07:18.375Z,14.28
2019-05-17T06:09:46.353Z,14.63
2019-05-17T06:12:23.572Z,14.20
2019-05-17T06:14:44.251Z,13.57
2019-05-17T06:17:12.663Z,13.77
2019-05-17T06:19:42.178Z,12.50
2019-05-17T06:22:12.009Z,14.67
2019-05-17T06:24:42.442Z,12.80
2019-05-17T06:27:12.210Z,13.97
2019-05-17T06:29:41.485Z,14.60
2019-05-17T06:32:11.810Z,14.43
2019-05-17T06:34:42.060Z,13.27
2019-05-17T06:37:09.685Z,13.70
2019-05-17T06:39:37.865Z,13.70
2019-05-17T06:42:06.002Z,14.23
2019-05-17T06:44:34.084Z,13.30
2019-05-17T06:47:02.680Z,14.40
2019-05-17T06:49:31.832Z,14.00
2019-05-17T06:52:02.236Z,15.50
2019-05-17T06:54:29.839Z,15.00
2019-05-17T06:56:58.188Z,13.30
2019-05-17T06:59:26.078Z,13.80
2019-05-17T07:01:54.096Z,14.80
2019-05-17T07:04:22.083Z,13.80
2019-05-17T07:07:10.806Z,12.33
2019-05-17T07:09:40.084Z,14.37
2019-05-17T07:12:10.399Z,14.40
2019-05-17T07:14:40.011Z,14.07
2019-05-17T07:17:09.809Z,14.90
2019-05-17T07:19:40.095Z,14.83
2019-05-17T07:22:09.452Z,15.20
2019-05-17T07:24:39.616Z,13.67
2019-05-17T07:27:07.333Z,15.00
2019-05-17T07:29:35.290Z,14.65
2019-05-17T07:32:03.478Z,17.67
2019-05-17T07:34:31.507Z,13.83
2019-05-17T07:36:59.812Z,13.88
2019-05-17T07:39:29.501Z,13.78
2019-05-17T07:41:57.483Z,13.40
2019-05-17T07:44:25.509Z,14.40
2019-05-17T07:46:53.533Z,13.48
2019-05-17T07:49:21.625Z,14.18
2019-05-17T07:51:50.260Z,12.85
2019-05-17T07:54:19.730Z,12.82
2019-05-17T07:56:50.498Z,14.05
2019-05-17T07:59:19.978Z,13.65
2019-05-17T08:01:50.325Z,13.98
2019-05-17T08:04:20.405Z,14.43
2019-05-17T08:06:50.506Z,14.38
2019-05-17T08:09:20.319Z,14.33
2019-05-17T08:11:50.223Z,13.40
2019-05-17T08:14:29.274Z,14.13
2019-05-17T08:16:50.183Z,12.85
2019-05-17T08:19:20.336Z,11.83
2019-05-17T08:21:50.205Z,12.63
2019-05-17T08:24:19.612Z,12.07
2019-05-17T08:26:50.126Z,11.05
2019-05-17T08:29:17.665Z,11.88
2019-05-17T08:31:46.317Z,12.37
2019-05-17T08:34:14.256Z,10.15
2019-05-17T08:36:42.447Z,9.13
2019-05-17T08:39:10.449Z,9.05
2019-05-17T08:41:40.464Z,10.50
2019-05-17T08:44:10.069Z,7.67
2019-05-17T08:46:39.498Z,6.95
2019-05-17T08:49:09.610Z,6.20
2019-05-17T08:51:39.488Z,7.47
2019-05-17T08:54:07.346Z,7.97
2019-05-17T08:56:41.547Z,6.70
2019-05-17T08:59:09.667Z,5.80
2019-05-17T09:01:39.232Z,6.42
2019-05-17T09:04:09.278Z,5.92
2019-05-17T09:06:39.578Z,8.58
2019-05-17T09:09:09.829Z,6.75
2019-05-17T09:11:39.437Z,7.50
2019-05-17T09:14:10.308Z,5.33
2019-05-17T09:16:39.929Z,5.78
2019-05-17T09:19:09.942Z,7.15
2019-05-17T09:21:39.582Z,6.22
2019-05-17T09:24:07.325Z,6.83
2019-05-17T09:26:35.610Z,7.42
2019-05-17T09:29:03.622Z,9.03
2019-05-17T09:31:31.716Z,7.97
2019-05-17T09:34:00.227Z,6.37
2019-05-17T09:36:30.290Z,5.92
2019-05-17T09:39:00.094Z,6.30
2019-05-17T09:41:29.334Z,5.12
2019-05-17T09:44:09.536Z,5.12
2019-05-17T09:46:30.069Z,5.30
2019-05-17T09:49:00.891Z,5.13
2019-05-17T09:51:30.261Z,4.70
2019-05-17T09:54:00.089Z,4.67
2019-05-17T09:56:30.100Z,5.70
2019-05-17T09:59:00.447Z,6.07
2019-05-17T10:01:30.317Z,5.47
2019-05-17T10:03:59.876Z,5.50
2019-05-17T10:06:27.987Z,5.27
2019-05-17T10:08:56.166Z,4.30
2019-05-17T10:11:24.046Z,4.37
2019-05-17T10:13:52.034Z,4.73
2019-05-17T10:16:20.550Z,4.90
2019-05-17T10:18:48.553Z,4.40
2019-05-17T10:21:16.695Z,5.20
2019-05-17T10:23:44.795Z,5.03
2019-05-17T10:26:12.793Z,4.53
2019-05-17T10:28:41.020Z,5.23
2019-05-17T10:31:11.393Z,4.72
2019-05-17T10:33:40.099Z,4.13
2019-05-17T10:36:08.593Z,4.55
2019-05-17T10:38:36.606Z,3.75
2019-05-17T10:41:05.287Z,3.90
2019-05-17T10:43:33.247Z,3.00
2019-05-17T10:46:01.215Z,3.80
2019-05-17T10:48:30.104Z,4.10
2019-05-17T10:51:00.374Z,4.37
2019-05-17T10:53:29.751Z,3.53
2019-05-17T10:56:00.437Z,3.97
2019-05-17T10:58:29.671Z,4.27
2019-05-17T11:01:00.554Z,4.27
2019-05-17T11:03:29.652Z,4.70
2019-05-17T11:05:59.740Z,4.67
2019-05-17T11:08:28.225Z,4.17
2019-05-17T11:10:59.432Z,4.20
2019-05-17T11:13:26.779Z,4.63
2019-05-17T11:15:55.139Z,4.73
2019-05-17T11:18:23.046Z,4.47
2019-05-17T11:20:51.124Z,4.67
2019-05-17T11:23:19.106Z,5.73
2019-05-17T11:25:47.123Z,5.60
2019-05-17T11:28:15.443Z,4.20
2019-05-17T11:30:43.966Z,4.63
2019-05-17T11:33:11.924Z,4.10
2019-05-17T11:35:40.047Z,5.27
2019-05-17T11:38:08.080Z,5.87
2019-05-17T11:40:35.984Z,5.13
2019-05-17T11:43:03.953Z,3.70
2019-05-17T11:45:33.028Z,4.33
2019-05-17T11:48:02.487Z,5.47
2019-05-17T11:50:30.976Z,4.63
2019-05-17T11:52:59.151Z,4.77
2019-05-17T11:55:27.347Z,5.53
2019-05-17T11:57:55.710Z,5.93
2019-05-17T12:00:25.077Z,5.60
2019-05-17T12:02:59.078Z,5.63
2019-05-17T12:05:28.638Z,6.10
2019-05-17T12:07:57.003Z,4.60
2019-05-17T12:10:26.380Z,7.47
2019-05-17T12:12:54.337Z,4.70
2019-05-17T12:15:22.306Z,4.40
2019-05-17T12:17:50.421Z,4.67
2019-05-17T12:20:20.821Z,5.70
2019-05-17T12:22:48.875Z,6.80
2019-05-17T12:25:18.851Z,6.27
2019-05-17T12:27:46.962Z,5.03
2019-05-17T12:30:15.704Z,6.37
2019-05-17T12:32:43.774Z,6.70
2019-05-17T12:35:11.855Z,7.30
2019-05-17T12:37:42.361Z,6.07
2019-05-17T12:40:10.809Z,5.77
2019-05-17T12:42:39.329Z,5.60
2019-05-17T12:45:07.823Z,4.70
2019-05-17T12:47:35.880Z,5.40
2019-05-17T12:50:05.378Z,4.27
2019-05-17T12:52:33.391Z,6.40
2019-05-17T12:55:01.391Z,6.97
2019-05-17T12:57:29.522Z,6.27
2019-05-17T12:59:57.699Z,6.70
2019-05-17T13:02:25.969Z,7.10
2019-05-17T13:04:54.040Z,6.80
2019-05-17T13:07:21.918Z,7.17
2019-05-17T13:09:50.152Z,7.10
2019-05-17T13:12:18.679Z,6.60
2019-05-17T13:14:46.921Z,5.73
2019-05-17T13:17:15.173Z,5.97
2019-05-17T13:19:43.133Z,6.37
2019-05-17T13:22:11.291Z,6.20
2019-05-17T13:24:39.357Z,6.33
2019-05-17T13:27:08.624Z,5.90
2019-05-17T13:29:37.928Z,6.93
2019-05-17T13:32:06.237Z,7.33
2019-05-17T13:34:34.234Z,6.57
2019-05-17T13:37:02.172Z,6.47
2019-05-17T13:39:30.191Z,6.00
2019-05-17T13:41:58.331Z,6.47
2019-05-17T13:44:26.509Z,6.40
2019-05-17T13:46:54.716Z,7.00
2019-05-17T13:49:23.162Z,7.47
2019-05-17T13:51:51.282Z,7.20
2019-05-17T13:54:19.284Z,6.53
2019-05-17T13:56:47.767Z,6.43
2019-05-17T13:59:15.882Z,7.50
2019-05-17T14:01:43.862Z,7.00
2019-05-17T14:04:11.935Z,6.30
2019-05-17T14:06:40.230Z,6.47
2019-05-17T14:09:08.666Z,6.53
2019-05-17T14:11:36.837Z,4.30
2019-05-17T14:14:04.973Z,4.70
2019-05-17T14:16:34.625Z,3.47
2019-05-17T14:19:02.889Z,4.77
2019-05-17T14:21:31.096Z,4.73
2019-05-17T14:23:59.177Z,4.10
2019-05-17T14:26:27.206Z,4.20
2019-05-17T14:28:55.331Z,4.13
2019-05-17T14:31:23.363Z,3.97
2019-05-17T14:33:51.585Z,4.13
2019-05-17T14:36:19.852Z,3.70
2019-05-17T14:38:47.814Z,4.30
2019-05-17T14:41:15.761Z,5.50
2019-05-17T14:43:43.989Z,5.80
2019-05-17T14:46:12.287Z,5.60
2019-05-17T14:48:40.620Z,5.20
2019-05-17T14:51:08.788Z,4.37
2019-05-17T14:53:36.965Z,4.47
2019-05-17T14:56:05.217Z,4.80
2019-05-17T14:58:34.953Z,4.63
2019-05-17T15:01:04.871Z,4.60
2019-05-17T15:03:33.926Z,4.33
2019-05-17T15:06:02.089Z,4.37
2019-05-17T15:08:30.458Z,4.17
2019-05-17T15:10:58.984Z,4.50
2019-05-17T15:13:27.054Z,4.20
2019-05-17T15:15:55.515Z,4.00
2019-05-17T15:18:23.650Z,4.67
2019-05-17T15:20:52.031Z,4.33
2019-05-17T15:23:20.820Z,3.47
2019-05-17T15:25:49.945Z,4.77
2019-05-17T15:28:18.739Z,4.00
2019-05-17T15:30:47.084Z,5.40
2019-05-17T15:33:16.227Z,4.90
2019-05-17T15:35:44.667Z,5.47
2019-05-17T15:38:13.749Z,4.40
2019-05-17T15:40:42.698Z,5.13
2019-05-17T15:43:11.082Z,4.80
2019-05-17T15:45:39.180Z,4.63
2019-05-17T15:48:07.542Z,5.03
2019-05-17T15:50:37.016Z,4.80
2019-05-17T15:53:04.959Z,4.30
2019-05-17T15:55:33.509Z,4.90
2019-05-17T15:58:01.767Z,5.40
2019-05-17T16:00:30.103Z,5.53
2019-05-17T16:02:58.220Z,4.80
2019-05-17T16:05:26.715Z,5.10
2019-05-17T16:07:55.841Z,4.63
2019-05-17T16:10:24.988Z,4.17
2019-05-17T16:13:02.583Z,4.30
2019-05-17T16:15:25.723Z,4.93
2019-05-17T16:17:53.922Z,5.20
2019-05-17T16:20:22.175Z,4.50
2019-05-17T16:22:50.385Z,5.10
2019-05-17T16:25:18.697Z,4.90
2019-05-17T16:27:47.632Z,5.60
2019-05-17T16:30:17.132Z,5.10
2019-05-17T16:32:45.113Z,6.73
2019-05-17T16:35:13.948Z,5.40
2019-05-17T16:37:42.130Z,5.03
2019-05-17T16:40:11.696Z,5.30
2019-05-17T16:42:39.780Z,5.00
2019-05-17T16:45:09.271Z,5.60
2019-05-17T16:47:37.482Z,5.60
2019-05-17T16:50:06.384Z,5.50
2019-05-17T16:52:34.553Z,5.30
2019-05-17T16:55:04.296Z,4.27
2019-05-17T16:57:33.840Z,5.33
2019-05-17T17:00:04.225Z,5.43
2019-05-17T17:02:32.549Z,4.67
2019-05-17T17:05:02.081Z,4.87
2019-05-17T17:07:31.985Z,4.40
2019-05-17T17:10:01.709Z,5.60
2019-05-17T17:12:30.658Z,5.17
2019-05-17T17:14:59.789Z,4.00
2019-05-17T17:17:27.964Z,4.63
2019-05-17T17:19:56.478Z,4.97
2019-05-17T17:22:24.936Z,4.50
2019-05-17T17:24:53.383Z,4.50
2019-05-17T17:27:21.406Z,4.30
2019-05-17T17:29:49.835Z,4.50
2019-05-17T17:32:21.632Z,5.13
2019-05-17T17:34:48.100Z,4.30
2019-05-17T17:37:16.226Z,3.70
2019-05-17T17:39:44.171Z,4.30
2019-05-17T17:42:13.118Z,3.77
2019-05-17T17:44:41.756Z,3.50
2019-05-17T17:47:10.133Z,3.00
2019-05-17T17:49:38.358Z,3.13
2019-05-17T17:52:07.200Z,4.20
2019-05-17T17:54:35.574Z,2.65
2019-05-17T17:57:08.589Z,3.08
2019-05-17T17:59:36.927Z,2.95
2019-05-17T18:02:05.766Z,3.00
2019-05-17T18:04:34.127Z,3.62
2019-05-17T18:07:02.507Z,2.30
2019-05-17T18:09:30.992Z,1.75
2019-05-17T18:11:59.103Z,2.10
2019-05-17T18:14:27.253Z,2.15
2019-05-17T18:16:55.626Z,1.85
2019-05-17T18:19:25.615Z,1.92
2019-05-17T18:21:53.939Z,1.40
2019-05-17T18:24:21.937Z,1.65
2019-05-17T18:26:50.124Z,1.72
2019-05-17T18:29:18.304Z,1.87
2019-05-17T18:31:46.295Z,1.95
2019-05-17T18:34:14.602Z,2.05
2019-05-17T18:36:42.642Z,1.42
2019-05-17T18:39:11.015Z,1.87
2019-05-17T18:41:39.179Z,1.70
2019-05-17T18:44:07.399Z,1.98
2019-05-17T18:46:35.413Z,2.22
2019-05-17T18:49:03.807Z,1.75
2019-05-17T18:51:32.818Z,2.20
2019-05-17T18:54:04.398Z,2.10
2019-05-17T18:56:32.378Z,1.92
2019-05-17T18:59:00.536Z,1.75
2019-05-17T19:01:28.642Z,1.90
2019-05-17T19:03:56.992Z,1.62
2019-05-17T19:06:25.214Z,1.80
2019-05-17T19:08:53.255Z,1.70
2019-05-17T19:11:24.360Z,1.60
2019-05-17T19:13:53.277Z,1.07
2019-05-17T19:16:21.978Z,1.42
2019-05-17T19:18:50.324Z,1.67
2019-05-17T19:21:18.755Z,1.75
2019-05-17T19:23:47.234Z,1.40
2019-05-17T19:26:15.265Z,1.60
2019-05-17T19:28:43.558Z,1.45
2019-05-17T19:31:11.604Z,2.02
2019-05-17T19:33:39.688Z,1.85
2019-05-17T19:36:08.354Z,2.00
2019-05-17T19:38:36.756Z,2.40
2019-05-17T19:41:04.940Z,2.27
2019-05-17T19:43:33.187Z,2.00
2019-05-17T19:46:01.266Z,2.00
2019-05-17T19:48:29.336Z,1.95
2019-05-17T19:50:57.549Z,1.85
2019-05-17T19:53:25.613Z,1.55
2019-05-17T19:55:53.663Z,1.87
2019-05-17T19:58:22.348Z,2.05
2019-05-17T20:00:50.292Z,1.70
2019-05-17T20:03:18.418Z,2.08
2019-05-17T20:05:46.921Z,1.98
2019-05-17T20:08:14.947Z,1.60
2019-05-17T20:10:43.149Z,1.90
2019-05-17T20:13:11.221Z,1.75
2019-05-17T20:15:39.212Z,1.10
2019-05-17T20:18:07.440Z,1.32
2019-05-17T20:20:35.747Z,1.30
2019-05-17T20:23:03.854Z,1.10
2019-05-17T20:25:31.923Z,1.40
2019-05-17T20:27:59.887Z,0.90
2019-05-17T20:30:28.023Z,0.95
2019-05-17T20:32:56.035Z,1.32
2019-05-17T20:35:24.072Z,0.90
2019-05-17T20:37:52.241Z,1.00
2019-05-17T20:40:20.437Z,1.05
2019-05-17T20:42:48.383Z,0.93
2019-05-17T20:45:30.585Z,1.62
2019-05-17T20:47:46.477Z,2.47
2019-05-17T20:50:16.600Z,1.82
2019-05-17T20:52:45.100Z,2.17
2019-05-17T20:55:14.239Z,1.32
2019-05-17T20:57:42.316Z,1.55
2019-05-17T21:00:11.337Z,1.87
2019-05-17T21:02:39.298Z,1.35
2019-05-17T21:05:07.846Z,1.35
2019-05-17T21:07:35.908Z,1.10
2019-05-17T21:10:05.183Z,1.22
2019-05-17T21:12:33.704Z,1.20
2019-05-17T21:15:02.527Z,2.83
2019-05-17T21:17:30.461Z,2.40
2019-05-17T21:19:58.478Z,1.57
2019-05-17T21:22:26.825Z,2.40
2019-05-17T21:24:54.944Z,2.02
2019-05-17T21:27:23.155Z,2.00
2019-05-17T21:29:51.296Z,2.22
2019-05-17T21:32:19.209Z,2.75
2019-05-17T21:34:47.215Z,2.85
2019-05-17T21:37:15.199Z,3.10
2019-05-17T21:39:43.151Z,2.60
2019-05-17T21:42:11.059Z,2.70
2019-05-17T21:44:39.075Z,2.42
2019-05-17T21:47:07.039Z,2.45
2019-05-17T21:49:35.282Z,2.60
2019-05-17T21:52:03.300Z,3.10
2019-05-17T21:54:31.393Z,3.45
2019-05-17T21:56:59.372Z,3.20
2019-05-17T21:59:27.531Z,2.75
2019-05-17T22:01:56.310Z,2.98
2019-05-17T22:04:26.988Z,2.30
2019-05-17T22:06:54.581Z,2.75
2019-05-17T22:09:22.968Z,3.20
2019-05-17T22:11:53.658Z,2.60
2019-05-17T22:14:21.662Z,2.90
2019-05-17T22:16:50.022Z,2.55
2019-05-17T22:19:18.279Z,3.12
2019-05-17T22:21:46.564Z,3.27
2019-05-17T22:24:14.896Z,2.80
2019-05-17T22:26:43.212Z,2.50
2019-05-17T22:29:11.275Z,2.60
2019-05-17T22:31:39.310Z,2.27
2019-05-17T22:34:07.456Z,2.70
2019-05-17T22:36:35.363Z,2.58
2019-05-17T22:39:05.176Z,3.12
2019-05-17T22:41:33.089Z,2.60
2019-05-17T22:44:01.350Z,2.85
2019-05-17T22:46:36.019Z,3.00
2019-05-17T22:48:59.753Z,2.62
2019-05-17T22:51:27.957Z,3.60
2019-05-17T22:53:56.172Z,2.95
2019-05-17T22:56:24.317Z,3.77
2019-05-17T22:58:52.322Z,3.00
2019-05-17T23:01:20.829Z,3.02
2019-05-17T23:03:49.307Z,2.95
2019-05-17T23:06:17.198Z,3.05
2019-05-17T23:08:45.686Z,3.52
2019-05-17T23:11:14.033Z,3.55
2019-05-17T23:13:42.308Z,3.17
2019-05-17T23:16:12.196Z,3.33
2019-05-17T23:18:42.004Z,2.90
2019-05-17T23:21:10.881Z,3.27
2019-05-17T23:23:39.107Z,2.80
2019-05-17T23:26:07.562Z,2.25
2019-05-17T23:28:35.699Z,3.50
2019-05-17T23:31:03.896Z,2.80
2019-05-17T23:33:32.554Z,3.42
2019-05-17T23:36:00.664Z,2.92
2019-05-17T23:38:29.041Z,2.75
2019-05-17T23:40:57.158Z,2.20
2019-05-17T23:43:25.747Z,2.08
2019-05-17T23:45:53.764Z,3.17
2019-05-17T23:48:22.083Z,2.72
2019-05-17T23:50:49.948Z,2.95
2019-05-17T23:53:18.188Z,2.85
2019-05-17T23:55:46.126Z,2.87
2019-05-17T23:58:14.241Z,3.08
